Rechercher aéroport 
image banner adimage banner ad
image banner ad

SSBG - Aeroclube de Bento Gonçalves Airport

Situé à Bento Gonçalves, Brazil

ICAO - SSBG, IATA - BGV

Données fournies par Airmate  

Information générale

Coordonnées: S29°8'54" W51°32'11"
Élévation : 2208 feet MSL.
Variation magnétique : -17° East
Voir autres Aéroports à Rio Grande do Sul

Données opérationnelles

Accessible au public
Heure actuelle UTC:
Heure actuelle locale:
METAR: SBCX 271400Z 36002KT 6000 -RA BKN007 BKN020 17/15 Q1012 RETS
Voir NOTAMs / SUP AIP / TFR affectant cet aéroport [VIEW]
Fréquences de communication: [VIEW]

Pistes:

Identifiant RWYQFULongueur (ft)Largeur (ft)SurfaceLDA (ft)
13328098DIRT
31328098DIRT

Coordonnées de l'aéroport

Adresse: Bento Gonçalves Brazil

Autres services d'aviation

Clubs d'aviation (sans but lucratif)

Aeroclube De Bento Gonçalves

Aeroclube De Bento Gonçalves
aerobg@aerobg.com.br+55543452-1657

Vue satellite de SSBG